Time;durP1;ratioP1;P1;durP2;ratioP2;P2;SDS_P1;SDS_P2;PMS_P1;PMS_P2;Temp;Humidity;BMP_temperature;BMP_pressure;BME280_temperature;BME280_humidity;BME280_pressure;Samples;Min_cycle;Max_cycle;Signal;HPM_P1;HPM_P2
2021/03/13 06:01:36;;;;;;;62.25;46.75;;;;;;;4.29;79.96;94638.22;5429836;24;20125;-74
2021/03/13 06:04:01;;;;;;;51.42;43.25;;;;;;;4.42;79.58;94625.09;4829883;29;20038;-74
2021/03/13 06:06:27;;;;;;;49.22;36.08;;;;;;;4.29;79.64;94624.59;4813528;29;20511;-74
2021/03/13 06:08:53;;;;;;;46.70;35.92;;;;;;;3.93;80.97;94646.69;4838971;29;20048;-74
2021/03/13 06:11:20;;;;;;;40.58;32.72;;;;;;;3.99;81.11;94641.00;4840600;29;20026;-74
2021/03/13 06:13:46;;;;;;;43.17;34.17;;;;;;;4.31;79.84;94650.88;4839061;29;20041;-73
2021/03/13 06:16:11;;;;;;;40.53;32.53;;;;;;;4.24;79.62;94619.88;4857349;29;20095;-74
2021/03/13 06:18:49;;;;;;;68.57;59.40;;;;;;;4.63;79.30;94652.09;4828627;29;20022;-74
2021/03/13 06:21:30;;;;;;;63.65;51.08;;;;;;;4.91;78.59;94652.91;4857749;29;20048;-74
2021/03/13 06:23:56;;;;;;;53.35;41.78;;;;;;;5.26;77.33;94627.28;4825004;29;20562;-76
2021/03/13 06:26:22;;;;;;;33.78;28.27;;;;;;;5.96;75.58;94646.19;4838968;29;20593;-77
2021/03/13 06:28:48;;;;;;;32.85;25.30;;;;;;;6.13;74.14;94641.94;4839907;29;20041;-76
2021/03/13 06:31:14;;;;;;;29.30;24.40;;;;;;;7.01;71.15;94640.72;4823538;29;20064;-77
2021/03/13 06:33:39;;;;;;;30.63;26.13;;;;;;;7.08;69.17;94641.72;4839462;29;20034;-74
2021/03/13 06:36:06;;;;;;;31.58;24.63;;;;;;;6.82;70.75;94626.34;4839784;29;20037;-73
2021/03/13 06:38:34;;;;;;;27.40;22.70;;;;;;;7.26;71.04;94643.19;4838168;29;20063;-74
2021/03/13 06:41:11;;;;;;;26.90;22.38;;;;;;;7.76;69.87;94601.84;4839691;29;20048;-73
2021/03/13 06:43:36;;;;;;;31.17;21.20;;;;;;;13.83;56.26;94637.78;4838070;29;20033;-76
2021/03/13 06:46:12;;;;;;;27.30;22.75;;;;;;;10.54;59.68;94649.13;4839576;29;20407;-73
2021/03/13 06:48:42;;;;;;;22.92;20.48;;;;;;;8.89;66.47;94645.44;4838872;29;20448;-74
2021/03/13 06:51:29;;;;;;;22.00;19.75;;;;;;;8.67;66.47;94651.34;4838316;29;20037;-73
2021/03/13 06:54:04;;;;;;;25.30;22.52;;;;;;;8.74;65.36;94641.97;4840136;29;20045;-75
2021/03/13 06:56:31;;;;;;;26.90;22.20;;;;;;;8.57;64.35;94600.91;4853610;29;20159;-75
2021/03/13 06:58:57;;;;;;;25.63;22.08;;;;;;;8.21;66.72;94652.91;4824623;29;20036;-74
2021/03/13 07:01:31;;;;;;;23.48;21.02;;;;;;;8.07;67.45;94660.47;4823586;29;20132;-76
2021/03/13 07:03:58;;;;;;;27.38;22.75;;;;;;;7.68;69.92;94660.31;4858157;29;20125;-77
2021/03/13 07:06:23;;;;;;;25.48;22.60;;;;;;;7.15;71.72;94668.44;4841351;29;20108;-77
2021/03/13 07:08:50;;;;;;;35.03;24.95;;;;;;;7.43;71.75;94662.06;4855484;29;20108;-76
2021/03/13 07:11:24;;;;;;;25.75;23.10;;;;;;;7.65;71.00;94651.13;4840420;29;20470;-76
2021/03/13 07:13:56;;;;;;;27.10;22.60;;;;;;;8.31;70.16;94658.72;4846569;29;20030;-77
2021/03/13 07:16:31;;;;;;;25.15;19.92;;;;;;;8.15;69.42;94674.19;4839172;29;20497;-76
2021/03/13 07:19:10;;;;;;;22.10;19.90;;;;;;;8.91;66.21;94673.69;4821929;29;20679;-77
2021/03/13 07:21:40;;;;;;;23.83;18.48;;;;;;;8.95;64.93;94631.88;4839089;29;20033;-76
2021/03/13 07:24:11;;;;;;;20.70;18.60;;;;;;;8.30;68.60;94682.09;4839975;29;20491;-77
2021/03/13 07:26:38;;;;;;;20.27;18.38;;;;;;;9.51;64.05;94663.53;4823348;29;20065;-77
2021/03/13 07:29:05;;;;;;;21.80;19.60;;;;;;;9.16;65.91;94661.47;4853522;29;20072;-77
2021/03/13 07:31:34;;;;;;;20.40;18.20;;;;;;;12.55;55.46;94671.41;4851873;29;20033;-76
2021/03/13 07:34:03;;;;;;;20.48;18.08;;;;;;;9.50;63.16;94688.56;4823817;29;20559;-76
2021/03/13 07:36:28;;;;;;;19.55;17.65;;;;;;;7.94;69.08;94689.31;4833106;29;20044;-77
2021/03/13 07:38:59;;;;;;;21.85;19.65;;;;;;;8.80;66.04;94671.47;4825006;29;20038;-76
2021/03/13 07:41:24;;;;;;;22.55;19.92;;;;;;;8.90;65.33;94678.06;4838313;29;20040;-77
2021/03/13 07:43:50;;;;;;;22.20;20.00;;;;;;;8.21;67.27;94685.63;4853008;29;20041;-77
2021/03/13 07:46:15;;;;;;;23.33;21.05;;;;;;;8.24;68.35;94680.94;4853503;29;20424;-76
2021/03/13 07:48:41;;;;;;;24.30;21.73;;;;;;;8.45;68.15;94685.59;4837960;29;20037;-76
2021/03/13 07:51:07;;;;;;;25.85;21.73;;;;;;;8.48;68.47;94678.34;4839242;29;20041;-76
2021/03/13 07:53:35;;;;;;;23.48;20.35;;;;;;;8.13;67.88;94640.00;4854325;29;20136;-76
2021/03/13 07:56:02;;;;;;;26.58;23.75;;;;;;;9.14;67.27;94694.44;4841797;29;20045;-77
2021/03/13 07:58:28;;;;;;;22.95;19.92;;;;;;;8.83;66.68;94689.22;4837029;29;20035;-76
2021/03/13 08:00:55;;;;;;;24.48;21.63;;;;;;;9.57;65.41;94685.34;4853887;29;20041;-76
2021/03/13 08:03:27;;;;;;;25.63;23.02;;;;;;;10.50;61.26;94682.31;4837189;29;20056;-77
2021/03/13 08:06:06;;;;;;;22.30;20.17;;;;;;;11.70;60.39;94690.63;4854101;29;20117;-76
2021/03/13 08:08:44;;;;;;;22.30;18.23;;;;;;;12.02;57.00;94690.97;4837670;29;20136;-76
2021/03/13 08:11:11;;;;;;;21.38;19.13;;;;;;;12.25;57.50;94674.38;4835496;29;20549;-76
2021/03/13 08:13:39;;;;;;;21.58;19.52;;;;;;;12.78;55.06;94683.38;4848120;29;20061;-76
2021/03/13 08:16:06;;;;;;;23.00;20.63;;;;;;;12.48;56.02;94680.16;4853517;29;20043;-76
2021/03/13 08:18:47;;;;;;;21.20;19.00;;;;;;;12.10;55.78;94680.44;4837703;29;20482;-76
2021/03/13 08:21:19;;;;;;;19.33;17.42;;;;;;;13.29;52.78;94670.88;4852447;29;20498;-76
2021/03/13 08:23:54;;;;;;;20.40;18.30;;;;;;;13.17;54.49;94676.59;4853692;29;20116;-76
2021/03/13 08:26:23;;;;;;;19.58;17.85;;;;;;;13.48;52.23;94681.34;4854471;29;20034;-75
2021/03/13 08:28:49;;;;;;;;;;;;;;;14.37;51.33;94681.13;4821741;29;20042;-75
2021/03/13 08:33:53;;;;;;;16.10;14.48;;;;;;;14.78;47.18;94666.06;4852418;29;20048;-73
2021/03/13 08:36:25;;;;;;;16.33;14.68;;;;;;;12.84;51.62;94662.63;4852276;29;20978;-76
2021/03/13 08:39:11;;;;;;;16.65;14.98;;;;;;;14.53;48.15;94667.69;4837272;29;20045;-73
2021/03/13 08:41:42;;;;;;;15.95;14.57;;;;;;;13.91;50.40;94687.06;4851435;29;20065;-73
2021/03/13 08:44:11;;;;;;;18.05;16.65;;;;;;;15.30;46.18;94670.34;4841625;29;20034;-74
2021/03/13 08:46:55;;;;;;;17.35;15.63;;;;;;;14.95;49.40;94677.66;4840453;29;20430;-74
2021/03/13 08:49:24;;;;;;;19.20;17.33;;;;;;;15.40;47.17;94670.69;4840409;29;20468;-74
2021/03/13 08:52:05;;;;;;;19.73;17.65;;;;;;;14.94;47.55;94676.06;4857921;29;20025;-74
2021/03/13 08:54:46;;;;;;;18.67;16.73;;;;;;;14.84;47.14;94604.47;4855275;29;20037;-73
2021/03/13 08:57:12;;;;;;;17.10;15.75;;;;;;;15.45;47.19;94675.28;4857173;29;20040;-73
2021/03/13 08:59:39;;;;;;;16.45;15.07;;;;;;;15.00;50.09;94670.00;4836472;29;20133;-74
2021/03/13 09:02:14;;;;;;;16.30;14.75;;;;;;;15.16;49.59;94685.22;4805620;29;20512;-75
2021/03/13 09:04:41;;;;;;;18.73;16.88;;;;;;;13.90;50.40;94650.81;4848499;29;20037;-77
2021/03/13 09:07:07;;;;;;;18.55;16.92;;;;;;;13.60;52.31;94689.38;4832815;29;20495;-77
2021/03/13 09:09:34;;;;;;;20.02;18.13;;;;;;;13.65;51.75;94669.56;4837655;29;20108;-77
2021/03/13 09:12:02;;;;;;;18.65;16.85;;;;;;;13.62;51.43;94695.19;4851612;29;20491;-77
2021/03/13 09:14:29;;;;;;;19.88;17.90;;;;;;;13.25;51.73;94688.66;4822304;29;20036;-77
2021/03/13 09:16:54;;;;;;;20.15;18.17;;;;;;;13.06;52.79;94689.34;4822194;29;20030;-77
2021/03/13 09:19:19;;;;;;;22.15;18.95;;;;;;;12.90;53.58;94690.44;4837360;29;20070;-77
2021/03/13 09:21:49;;;;;;;23.23;20.63;;;;;;;12.78;53.50;94697.16;4837331;29;20030;-76
2021/03/13 09:24:21;;;;;;;26.35;23.70;;;;;;;12.39;54.96;94681.31;4821580;29;20026;-76
2021/03/13 09:26:51;;;;;;;22.05;19.73;;;;;;;12.58;53.75;94688.44;4822135;29;20048;-76
2021/03/13 09:29:16;;;;;;;;;;;;;;;12.97;52.89;94696.47;4836824;29;20117;-77
2021/03/13 09:31:42;;;;;;;21.08;19.02;;;;;;;12.87;52.06;94682.22;4838648;29;20015;-77
2021/03/13 09:34:17;;;;;;;20.67;16.20;;;;;;;13.08;51.53;94698.56;4836748;29;20034;-77
2021/03/13 09:36:45;;;;;;;17.85;16.00;;;;;;;13.35;50.41;94691.72;4821220;29;20125;-76
2021/03/13 09:39:10;;;;;;;20.80;18.65;;;;;;;13.17;51.03;94681.00;4822150;29;20401;-76
2021/03/13 09:41:36;;;;;;;22.85;19.58;;;;;;;12.73;52.10;94683.94;4805644;29;20030;-76
2021/03/13 09:44:01;;;;;;;24.30;21.70;;;;;;;12.70;52.63;94684.31;4837687;29;20082;-77
2021/03/13 09:46:27;;;;;;;23.08;20.67;;;;;;;12.59;53.04;94705.63;4821057;29;20025;-76
2021/03/13 09:48:52;;;;;;;25.27;20.42;;;;;;;12.24;54.64;94709.13;4821927;29;20038;-77
2021/03/13 09:51:18;;;;;;;29.75;20.67;;;;;;;11.77;56.26;94702.72;4805890;29;20053;-77
2021/03/13 09:53:43;;;;;;;26.65;21.30;;;;;;;11.71;56.03;94681.88;4820937;29;20569;-76
2021/03/13 09:56:09;;;;;;;28.35;21.88;;;;;;;11.86;56.34;94711.97;4806543;29;20037;-77
2021/03/13 09:58:34;;;;;;;23.75;20.42;;;;;;;11.82;56.03;94709.91;4820903;29;20025;-76
2021/03/13 10:01:00;;;;;;;20.45;15.75;;;;;;;11.71;53.66;94719.00;4833749;29;20069;-77
2021/03/13 10:03:26;;;;;;;26.35;14.73;;;;;;;11.55;53.83;94716.59;4817472;29;20065;-77
2021/03/13 10:05:55;;;;;;;22.02;15.90;;;;;;;11.25;54.86;94722.81;4819021;29;20038;-76
2021/03/13 10:08:21;;;;;;;23.30;18.70;;;;;;;11.17;55.43;94725.50;4802534;29;20037;-76
2021/03/13 10:10:48;;;;;;;22.38;20.00;;;;;;;11.14;56.61;94711.13;4818619;29;20026;-77
2021/03/13 10:13:14;;;;;;;24.20;19.33;;;;;;;11.26;55.99;94727.03;4802709;29;20022;-76
2021/03/13 10:15:40;;;;;;;22.08;18.08;;;;;;;11.38;55.93;94736.75;4817855;29;20026;-76
2021/03/13 10:18:14;;;;;;;23.85;15.65;;;;;;;11.30;55.27;94728.28;4817308;29;20037;-77
2021/03/13 10:20:45;;;;;;;20.35;17.33;;;;;;;11.30;57.07;94733.47;4809674;29;20034;-74
2021/03/13 10:23:12;;;;;;;19.98;18.02;;;;;;;11.69;56.88;94720.94;4820313;29;20031;-77
2021/03/13 10:25:40;;;;;;;19.58;16.35;;;;;;;11.81;55.61;94727.31;4823306;29;20027;-75
2021/03/13 10:28:09;;;;;;;25.63;16.42;;;;;;;11.58;55.36;94691.09;4819285;29;20038;-76
2021/03/13 10:30:35;;;;;;;22.50;16.70;;;;;;;12.08;55.98;94713.59;4832118;29;20121;-76
2021/03/13 10:33:01;;;;;;;18.10;16.08;;;;;;;12.49;54.71;94716.34;4801000;29;20133;-76
2021/03/13 10:35:27;;;;;;;22.88;16.90;;;;;;;12.58;53.58;94717.81;4817977;29;20469;-76
2021/03/13 10:38:15;;;;;;;19.52;16.00;;;;;;;12.77;53.14;94711.16;4816534;29;20058;-76
2021/03/13 10:40:45;;;;;;;28.55;17.08;;;;;;;12.96;52.64;94715.69;4831006;29;20115;-76
2021/03/13 10:43:17;;;;;;;23.05;18.92;;;;;;;13.07;53.20;94732.50;4816693;29;20038;-77
2021/03/13 10:46:12;;;;;;;23.45;20.95;;;;;;;12.98;53.43;94726.69;4818069;29;20046;-77
2021/03/13 10:48:44;;;;;;;26.15;20.08;;;;;;;13.40;53.22;94728.34;4808892;29;20047;-76
2021/03/13 10:51:19;;;;;;;24.00;21.50;;;;;;;12.97;52.64;94688.66;4817183;29;20049;-75
2021/03/13 10:53:44;;;;;;;25.70;21.40;;;;;;;12.76;52.79;94722.53;4825363;29;20046;-75
2021/03/13 10:56:11;;;;;;;26.73;22.88;;;;;;;12.68;54.23;94707.09;4816292;29;20039;-76
2021/03/13 10:58:46;;;;;;;24.95;21.80;;;;;;;13.02;53.31;94701.91;4805876;29;20038;-76
2021/03/13 11:01:12;;;;;;;31.83;25.90;;;;;;;13.15;53.74;94694.22;4788606;29;20058;-76
2021/03/13 11:03:37;;;;;;;28.85;24.50;;;;;;;13.34;53.62;94687.50;4817113;29;20121;-76
2021/03/13 11:06:03;;;;;;;28.15;24.20;;;;;;;14.05;52.10;94688.69;4816765;29;20030;-76
2021/03/13 11:08:29;;;;;;;29.92;25.85;;;;;;;13.70;51.86;94697.63;4815189;29;20129;-76
2021/03/13 11:10:55;;;;;;;29.15;26.05;;;;;;;13.61;51.80;94676.16;4832657;29;20034;-76
2021/03/13 11:13:20;;;;;;;25.67;22.17;;;;;;;13.82;50.37;94677.84;4816654;29;20030;-76
2021/03/13 11:15:46;;;;;;;26.73;23.40;;;;;;;13.41;54.71;94695.31;4817252;29;20045;-76
2021/03/13 11:18:12;;;;;;;25.27;22.58;;;;;;;14.54;52.20;94690.16;4831530;29;20098;-75
2021/03/13 11:20:38;;;;;;;24.42;21.58;;;;;;;14.00;52.29;94696.28;4831851;29;20031;-75
2021/03/13 11:23:03;;;;;;;24.73;22.10;;;;;;;14.37;51.88;94697.56;4817409;29;20022;-75
2021/03/13 11:25:29;;;;;;;24.58;22.08;;;;;;;14.59;51.24;94674.69;4816272;29;20507;-74
2021/03/13 11:27:54;;;;;;;24.13;21.45;;;;;;;13.94;51.32;94646.78;4817163;29;20045;-76
2021/03/13 11:30:20;;;;;;;26.17;21.65;;;;;;;13.76;51.59;94686.44;4816397;29;20024;-75
2021/03/13 11:32:46;;;;;;;21.65;19.27;;;;;;;13.88;52.41;94678.84;4817560;29;20041;-75
2021/03/13 11:35:12;;;;;;;23.40;18.50;;;;;;;13.57;53.19;94687.19;4816386;29;20584;-76
2021/03/13 11:37:37;;;;;;;22.95;19.02;;;;;;;14.02;52.48;94686.47;4801505;29;20077;-75
2021/03/13 11:40:06;;;;;;;22.27;18.60;;;;;;;13.77;50.98;94682.84;4816543;29;20495;-75
2021/03/13 11:42:31;;;;;;;18.90;16.88;;;;;;;13.54;51.85;94682.38;4820953;29;20037;-75
2021/03/13 11:44:57;;;;;;;23.02;16.85;;;;;;;13.34;51.51;94671.88;4834257;29;20118;-75
2021/03/13 11:47:23;;;;;;;19.52;15.70;;;;;;;13.69;50.15;94678.59;4833664;29;20113;-75
2021/03/13 11:49:49;;;;;;;17.88;15.88;;;;;;;13.83;50.34;94676.84;4839964;29;20050;-76
2021/03/13 11:52:17;;;;;;;21.08;14.90;;;;;;;14.22;49.94;94663.06;4832777;29;20048;-75
2021/03/13 11:54:43;;;;;;;17.17;15.38;;;;;;;14.24;51.03;94661.06;4849458;29;20049;-75
2021/03/13 11:57:08;;;;;;;17.38;15.65;;;;;;;14.34;50.67;94637.25;4834374;29;20073;-76
2021/03/13 11:59:34;;;;;;;20.55;18.25;;;;;;;14.08;51.66;94664.84;4834051;29;20053;-76
2021/03/13 12:01:59;;;;;;;23.05;20.58;;;;;;;14.25;50.85;94644.44;4834247;29;20056;-76
2021/03/13 12:04:25;;;;;;;22.85;20.58;;;;;;;13.72;51.70;94653.97;4834157;29;20117;-76
2021/03/13 12:06:50;;;;;;;24.15;20.48;;;;;;;13.85;51.44;94651.41;4835037;29;20480;-76
2021/03/13 12:09:16;;;;;;;24.30;21.77;;;;;;;13.71;52.01;94655.78;4849238;29;20034;-76
2021/03/13 12:11:42;;;;;;;27.42;21.05;;;;;;;14.10;51.73;94649.00;4850443;29;20030;-76
2021/03/13 12:14:08;;;;;;;25.40;21.17;;;;;;;13.72;52.38;94649.56;4818904;29;20098;-77
2021/03/13 12:16:34;;;;;;;19.73;17.67;;;;;;;13.60;52.75;94642.53;4835759;29;20081;-76
2021/03/13 12:19:01;;;;;;;20.67;18.48;;;;;;;13.78;52.69;94655.78;4856063;29;20190;-76
2021/03/13 12:21:26;;;;;;;20.70;16.52;;;;;;;13.63;53.07;94653.38;4855257;29;20457;-76
2021/03/13 12:23:52;;;;;;;12.13;10.98;;;;;;;13.66;50.58;94628.75;4840649;29;20105;-76
2021/03/13 12:26:17;;;;;;;10.02;9.13;;;;;;;14.12;49.95;94629.59;4854482;29;20030;-76
2021/03/13 12:28:43;;;;;;;11.50;8.15;;;;;;;14.26;49.57;94646.81;4840979;29;20045;-76
2021/03/13 12:31:08;;;;;;;10.20;7.95;;;;;;;14.27;48.92;94638.00;4839586;29;20087;-76
2021/03/13 12:33:33;;;;;;;11.77;8.13;;;;;;;14.25;49.37;94640.00;4842017;29;20026;-75
2021/03/13 12:35:59;;;;;;;8.32;7.63;;;;;;;14.89;49.04;94638.56;4841442;29;20045;-76
2021/03/13 12:38:24;;;;;;;9.10;8.20;;;;;;;14.44;47.73;94590.72;4855398;29;20065;-75
2021/03/13 12:40:50;;;;;;;10.63;8.82;;;;;;;15.34;47.94;94637.59;4825436;29;20033;-76
2021/03/13 12:43:15;;;;;;;10.45;9.25;;;;;;;14.46;48.93;94612.16;4840534;29;20064;-76
2021/03/13 12:45:41;;;;;;;10.23;9.30;;;;;;;14.54;49.07;94614.56;4840842;29;20090;-76
2021/03/13 12:48:06;;;;;;;11.52;10.18;;;;;;;14.33;50.10;94610.38;4824538;29;20435;-76
2021/03/13 12:50:32;;;;;;;10.80;9.82;;;;;;;14.57;50.12;94624.59;4840758;29;20038;-76
2021/03/13 12:52:57;;;;;;;14.50;10.02;;;;;;;14.58;49.92;94623.56;4840023;29;20029;-76
2021/03/13 12:55:23;;;;;;;11.68;9.43;;;;;;;14.63;50.15;94621.16;4824645;29;20094;-76
2021/03/13 12:57:48;;;;;;;10.88;9.77;;;;;;;14.31;49.57;94614.16;4840377;29;20026;-75
2021/03/13 13:00:14;;;;;;;10.65;9.55;;;;;;;14.43;50.55;94621.19;4839175;29;20038;-76
2021/03/13 13:02:40;;;;;;;9.57;8.73;;;;;;;14.43;50.69;94576.09;4824704;29;20057;-76
2021/03/13 13:05:06;;;;;;;11.88;9.50;;;;;;;14.39;51.08;94606.16;4855080;29;20527;-76
2021/03/13 13:07:32;;;;;;;10.60;9.50;;;;;;;14.24;50.82;94598.53;4840094;29;20709;-76
2021/03/13 13:09:58;;;;;;;9.95;9.00;;;;;;;14.31;50.70;94601.13;4854577;29;20029;-75
2021/03/13 13:12:23;;;;;;;14.57;9.85;;;;;;;14.29;51.02;94593.50;4824584;29;20038;-76
2021/03/13 13:14:49;;;;;;;11.20;8.90;;;;;;;14.69;50.87;94597.69;4821223;29;20034;-76
2021/03/13 13:17:14;;;;;;;12.25;9.68;;;;;;;14.46;50.65;94599.13;4836750;29;20026;-75
2021/03/13 13:19:40;;;;;;;12.13;10.55;;;;;;;14.11;51.10;94599.34;4822195;29;20554;-76
2021/03/13 13:22:05;;;;;;;13.32;9.88;;;;;;;14.08;50.53;94560.69;4821288;29;20034;-76
2021/03/13 13:24:31;;;;;;;11.52;9.98;;;;;;;14.13;51.20;94580.91;4833640;29;20408;-75
2021/03/13 13:26:56;;;;;;;9.65;8.75;;;;;;;13.93;51.24;94583.53;4823883;29;20036;-75
2021/03/13 13:29:23;;;;;;;9.77;8.73;;;;;;;14.31;50.80;94581.09;4837517;29;20030;-76
2021/03/13 13:31:49;;;;;;;10.20;9.00;;;;;;;14.10;50.66;94595.13;4836927;29;20025;-77
2021/03/13 13:34:14;;;;;;;9.10;8.20;;;;;;;14.37;49.69;94590.75;4838624;29;20431;-76
2021/03/13 13:36:40;;;;;;;9.90;7.90;;;;;;;14.32;49.54;94602.75;4836848;29;20401;-76
2021/03/13 13:39:05;;;;;;;9.05;8.15;;;;;;;14.51;50.19;94594.13;4821076;29;20034;-75
2021/03/13 13:41:31;;;;;;;10.60;8.75;;;;;;;14.65;50.21;94593.88;4836993;29;20041;-76
2021/03/13 13:43:57;;;;;;;9.45;8.55;;;;;;;14.40;50.56;94597.34;4820983;29;20037;-75
2021/03/13 13:46:22;;;;;;;12.23;9.27;;;;;;;13.76;49.60;94473.00;4837229;29;20143;-76
2021/03/13 13:48:49;;;;;;;9.63;8.40;;;;;;;14.51;50.20;94581.88;4851452;29;20033;-76
2021/03/13 13:51:14;;;;;;;11.05;8.68;;;;;;;14.26;50.65;94579.09;4837142;29;20583;-76
2021/03/13 13:53:40;;;;;;;9.00;7.90;;;;;;;14.55;50.42;94574.47;4836579;29;20073;-76
2021/03/13 13:56:06;;;;;;;10.40;8.02;;;;;;;14.81;50.08;94584.81;4836287;29;20041;-76
2021/03/13 13:58:32;;;;;;;8.75;7.95;;;;;;;14.79;50.34;94589.44;4851885;29;20495;-76
2021/03/13 14:00:57;;;;;;;10.43;8.60;;;;;;;14.55;50.49;94582.28;4840232;29;20074;-76
2021/03/13 14:03:23;;;;;;;14.68;9.18;;;;;;;14.17;50.77;94585.50;4840051;29;20029;-75
2021/03/13 14:05:48;;;;;;;13.40;10.68;;;;;;;14.34;50.92;94590.34;4839116;29;20040;-76
2021/03/13 14:08:14;;;;;;;10.93;9.57;;;;;;;14.49;49.37;94588.31;4855319;29;20472;-76
2021/03/13 14:10:39;;;;;;;13.95;9.02;;;;;;;14.54;50.38;94585.91;4838820;29;20040;-77
2021/03/13 14:13:05;;;;;;;12.38;9.90;;;;;;;14.22;50.77;94598.72;4840001;29;20030;-76
2021/03/13 14:15:30;;;;;;;9.25;8.55;;;;;;;14.11;52.15;94595.94;4838759;29;20042;-75
2021/03/13 14:17:56;;;;;;;10.68;8.15;;;;;;;13.66;52.91;94597.50;4854584;29;20086;-76
2021/03/13 14:20:21;;;;;;;10.18;9.18;;;;;;;13.95;51.95;94606.75;4854971;29;20466;-76
2021/03/13 14:22:47;;;;;;;10.15;9.07;;;;;;;13.58;52.66;94584.72;4838466;29;20588;-76
2021/03/13 14:25:14;;;;;;;14.10;8.80;;;;;;;13.37;53.70;94601.25;4839670;29;20033;-76
2021/03/13 14:27:42;;;;;;;11.40;8.75;;;;;;;13.23;53.42;94599.59;4853682;29;20034;-76
2021/03/13 14:30:09;;;;;;;13.18;8.93;;;;;;;13.33;53.54;94592.25;4855098;29;20108;-76
2021/03/13 14:32:35;;;;;;;10.02;8.65;;;;;;;13.77;52.53;94598.72;4838968;29;20112;-76
2021/03/13 14:35:01;;;;;;;9.82;8.63;;;;;;;13.77;53.31;94583.13;4854359;29;20415;-77
2021/03/13 14:37:26;;;;;;;9.40;8.60;;;;;;;13.30;53.17;94542.41;4854642;29;20029;-77
2021/03/13 14:39:52;;;;;;;12.38;9.13;;;;;;;13.65;52.18;94586.28;4823168;29;20029;-76
2021/03/13 14:42:17;;;;;;;10.25;9.10;;;;;;;13.70;53.48;94589.13;4839424;29;20033;-77
2021/03/13 14:44:43;;;;;;;10.05;7.68;;;;;;;13.63;52.31;94577.09;4853439;29;20029;-77
2021/03/13 14:47:09;;;;;;;9.57;7.93;;;;;;;13.39;53.74;94570.63;4839134;29;20037;-77
2021/03/13 14:49:34;;;;;;;9.38;7.88;;;;;;;13.37;54.05;94598.66;4853769;29;20029;-76
2021/03/13 14:51:59;;;;;;;7.93;7.28;;;;;;;13.38;53.60;94595.06;4838880;29;20467;-77
2021/03/13 14:54:25;;;;;;;9.77;7.60;;;;;;;13.30;54.02;94597.84;4838822;29;20706;-77
2021/03/13 14:56:51;;;;;;;7.95;7.25;;;;;;;13.39;53.67;94594.03;4853664;29;20093;-77
2021/03/13 14:59:17;;;;;;;7.65;6.95;;;;;;;13.30;54.20;94591.81;4839455;29;20037;-77
2021/03/13 15:01:43;;;;;;;8.35;7.65;;;;;;;13.51;53.80;94586.50;4837352;29;20041;-76
2021/03/13 15:04:08;;;;;;;10.48;7.20;;;;;;;13.31;53.55;94557.03;4839190;29;20033;-76
2021/03/13 15:06:34;;;;;;;7.72;6.95;;;;;;;13.39;54.08;94588.84;4852867;29;20030;-77
2021/03/13 15:08:59;;;;;;;8.07;7.35;;;;;;;13.32;55.00;94601.06;4823555;29;20186;-76
2021/03/13 15:11:26;;;;;;;6.60;6.00;;;;;;;13.10;55.44;94597.75;4838238;29;20025;-76
2021/03/13 15:13:51;;;;;;;6.47;5.70;;;;;;;12.92;55.75;94594.06;4853615;29;20069;-76
2021/03/13 15:16:17;;;;;;;6.35;5.68;;;;;;;12.85;56.63;94601.03;4838540;29;20061;-76
2021/03/13 15:18:42;;;;;;;6.28;5.72;;;;;;;12.67;56.61;94606.75;4838287;29;20033;-76
2021/03/13 15:21:08;;;;;;;6.10;5.50;;;;;;;12.58;57.08;94598.31;4853481;29;20033;-76
2021/03/13 15:23:33;;;;;;;6.53;6.03;;;;;;;12.49;57.52;94601.25;4821746;29;20116;-76
2021/03/13 15:25:59;;;;;;;6.50;5.50;;;;;;;12.46;58.61;94612.81;4838520;29;20025;-76
2021/03/13 15:28:25;;;;;;;6.25;5.63;;;;;;;12.33;59.06;94602.34;4836998;29;20033;-76
2021/03/13 15:30:50;;;;;;;5.80;5.20;;;;;;;12.46;58.99;94612.00;4838421;29;20038;-76
2021/03/13 15:33:16;;;;;;;6.05;5.45;;;;;;;12.35;59.27;94608.16;4838210;29;20120;-77
2021/03/13 15:35:41;;;;;;;5.55;5.13;;;;;;;12.00;60.69;94593.53;4822650;29;20116;-77
2021/03/13 15:38:07;;;;;;;6.88;6.20;;;;;;;12.15;60.23;94591.63;4838304;29;20574;-76
2021/03/13 15:40:32;;;;;;;6.18;5.68;;;;;;;12.29;60.47;94608.94;4837274;29;20177;-76
2021/03/13 15:42:58;;;;;;;14.10;7.57;;;;;;;12.10;60.82;94584.41;4838352;29;20029;-76
2021/03/13 15:45:23;;;;;;;9.00;6.38;;;;;;;11.99;61.84;94595.31;4837393;29;20515;-76
2021/03/13 15:47:49;;;;;;;7.90;6.47;;;;;;;11.63;62.86;94587.59;4839192;29;20037;-76
2021/03/13 15:50:15;;;;;;;7.53;6.93;;;;;;;11.53;63.58;94594.06;4837257;29;20112;-76
2021/03/13 15:52:41;;;;;;;6.70;6.13;;;;;;;11.42;63.93;94589.41;4837475;29;20036;-76
2021/03/13 15:55:09;;;;;;;7.30;6.32;;;;;;;11.25;64.48;94588.00;4822264;29;20041;-77
2021/03/13 15:57:35;;;;;;;7.70;7.10;;;;;;;11.45;63.92;94591.63;4837909;29;20568;-76
2021/03/13 16:00:00;;;;;;;7.13;6.53;;;;;;;11.30;64.65;94601.25;4822985;29;20049;-77
2021/03/13 16:02:25;;;;;;;12.48;6.60;;;;;;;11.00;64.01;94565.03;4839611;29;20535;-77
2021/03/13 16:04:51;;;;;;;7.97;6.65;;;;;;;10.87;64.40;94583.03;4819729;29;20026;-77
2021/03/13 16:07:17;;;;;;;7.70;7.00;;;;;;;10.67;64.96;94588.94;4849824;29;20033;-77
2021/03/13 16:09:42;;;;;;;7.30;6.60;;;;;;;10.44;66.17;94587.25;4850997;29;20026;-76
2021/03/13 16:12:08;;;;;;;7.25;6.65;;;;;;;10.66;65.39;94602.88;4849784;29;20385;-77
2021/03/13 16:14:34;;;;;;;7.35;6.65;;;;;;;10.50;65.59;94589.13;4834243;29;20049;-77
2021/03/13 16:16:59;;;;;;;7.93;7.22;;;;;;;10.39;66.36;94599.94;4834622;29;20029;-76
2021/03/13 16:19:25;;;;;;;6.43;5.93;;;;;;;9.99;66.88;94601.09;4835191;29;20088;-76
2021/03/13 16:21:50;;;;;;;8.77;7.97;;;;;;;9.97;66.60;94576.38;4850465;29;20057;-76
2021/03/13 16:24:18;;;;;;;11.88;10.68;;;;;;;9.76;67.83;94589.97;4849212;29;20030;-76
2021/03/13 16:26:44;;;;;;;9.20;8.50;;;;;;;9.61;67.44;94567.66;4835228;29;20038;-76
2021/03/13 16:29:10;;;;;;;7.85;7.15;;;;;;;9.41;68.46;94575.06;4834133;29;20045;-77
2021/03/13 16:31:36;;;;;;;7.72;6.97;;;;;;;9.53;67.85;94600.34;4834436;29;20026;-76
2021/03/13 16:34:02;;;;;;;7.50;6.72;;;;;;;9.63;67.60;94600.13;4820499;29;20126;-76
2021/03/13 16:36:27;;;;;;;7.97;7.38;;;;;;;9.53;68.32;94620.25;4849573;29;20492;-76
2021/03/13 16:38:53;;;;;;;7.90;7.05;;;;;;;9.41;67.73;94630.16;4835296;29;20041;-77
2021/03/13 16:41:18;;;;;;;15.07;13.48;;;;;;;9.31;68.41;94614.06;4846569;29;20034;-76
2021/03/13 16:43:44;;;;;;;39.63;22.33;;;;;;;9.24;69.36;94635.59;4831086;29;20042;-76
2021/03/13 16:46:09;;;;;;;51.30;36.58;;;;;;;8.85;70.24;94610.63;4829708;29;20452;-76
2021/03/13 16:48:35;;;;;;;48.42;36.13;;;;;;;8.78;69.89;94611.47;4818867;29;20056;-76
2021/03/13 16:51:00;;;;;;;33.00;25.60;;;;;;;8.79;70.38;94628.56;4832740;29;20504;-76
2021/03/13 16:53:26;;;;;;;28.48;24.67;;;;;;;8.58;70.76;94612.81;4834508;29;20038;-76
2021/03/13 16:55:51;;;;;;;49.15;33.17;;;;;;;8.64;70.80;94633.59;4849515;29;20033;-76
2021/03/13 16:58:17;;;;;;;54.38;45.85;;;;;;;8.66;70.50;94636.03;4833890;29;20022;-76
2021/03/13 17:00:42;;;;;;;61.85;50.88;;;;;;;8.65;71.09;94639.56;4836549;29;20040;-76
2021/03/13 17:03:08;;;;;;;50.10;37.45;;;;;;;8.54;70.22;94632.22;4836412;29;20032;-75
2021/03/13 17:05:34;;;;;;;18.05;16.17;;;;;;;8.73;70.45;94647.31;4856085;29;20038;-76
2021/03/13 17:07:59;;;;;;;11.30;9.80;;;;;;;8.44;70.27;94609.19;4841121;29;20068;-76
2021/03/13 17:10:25;;;;;;;9.05;8.25;;;;;;;8.57;70.07;94635.25;4841205;29;20036;-76
2021/03/13 17:12:51;;;;;;;11.52;8.95;;;;;;;8.62;69.89;94651.03;4842033;29;20036;-76
2021/03/13 17:15:16;;;;;;;8.60;7.80;;;;;;;8.68;69.76;94647.00;4845249;29;20128;-76
2021/03/13 17:17:42;;;;;;;22.27;16.13;;;;;;;8.71;69.93;94652.63;4842231;29;20406;-76
2021/03/13 17:20:09;;;;;;;25.13;17.25;;;;;;;8.51;69.90;94666.88;4841107;29;20029;-76
2021/03/13 17:22:35;;;;;;;49.28;32.42;;;;;;;8.58;70.02;94654.91;4856039;29;20033;-76
2021/03/13 17:25:02;;;;;;;50.08;34.95;;;;;;;8.50;69.68;94631.72;4838620;29;20045;-76
2021/03/13 17:27:28;;;;;;;66.88;41.47;;;;;;;8.43;70.46;94648.84;4840779;29;20511;-77